Terminal Aerodrome Forecast
Issued by NWS

Home | Current Version | Previous Version | Text Only | Print | Product List | Glossary On
Versions: 1 2 3 4 5 6 7 8 9 10 11 12 13 14 15 16 17 18 19
000
FTUS46 KMTR 220500
TAFSTS
TAF
KSTS 220531Z 2206/2306 14004KT P6SM OVC010
     FM221800 18005KT P6SM SCT010
     FM222000 18010KT P6SM SKC
     FM230400 14005KT P6SM SKC=

USA.gov is the U.S. government's official web portal to all federal, state and local government web resources and services.